sensor_id;sensor_type;location;lat;lon;timestamp;pressure;altitude;pressure_sealevel;temperature;humidity
11099;BME280;12223;42.650;23.364;2022-12-24T00:00:56;94497.50;;;2.12;nan
11099;BME280;12223;42.650;23.364;2022-12-24T00:03:23;94485.41;;;1.96;nan
11099;BME280;12223;42.650;23.364;2022-12-24T00:05:50;94489.63;;;1.75;nan
11099;BME280;12223;42.650;23.364;2022-12-24T00:08:17;94486.38;;;1.73;nan
11099;BME280;12223;42.650;23.364;2022-12-24T00:10:48;94473.22;;;1.74;nan
11099;BME280;12223;42.650;23.364;2022-12-24T00:13:15;94472.19;;;1.83;nan
11099;BME280;12223;42.650;23.364;2022-12-24T00:15:42;94481.50;;;2.00;nan
11099;BME280;12223;42.650;23.364;2022-12-24T00:18:10;94461.28;;;2.02;nan
11099;BME280;12223;42.650;23.364;2022-12-24T00:20:36;94473.50;;;2.02;nan
11099;BME280;12223;42.650;23.364;2022-12-24T00:23:03;94491.84;;;2.09;nan
11099;BME280;12223;42.650;23.364;2022-12-24T00:25:30;94477.31;;;2.14;nan
11099;BME280;12223;42.650;23.364;2022-12-24T00:27:57;94473.19;;;2.20;nan
11099;BME280;12223;42.650;23.364;2022-12-24T00:30:24;94483.25;;;2.23;nan
11099;BME280;12223;42.650;23.364;2022-12-24T00:32:50;94493.44;;;2.10;nan
11099;BME280;12223;42.650;23.364;2022-12-24T00:35:18;94495.72;;;2.13;nan
11099;BME280;12223;42.650;23.364;2022-12-24T00:37:46;94497.56;;;1.81;nan
11099;BME280;12223;42.650;23.364;2022-12-24T00:40:13;94493.50;;;1.79;nan
11099;BME280;12223;42.650;23.364;2022-12-24T00:42:39;94508.78;;;1.82;nan
11099;BME280;12223;42.650;23.364;2022-12-24T00:45:07;94509.19;;;1.71;nan
11099;BME280;12223;42.650;23.364;2022-12-24T00:47:34;94503.19;;;1.70;nan
11099;BME280;12223;42.650;23.364;2022-12-24T00:50:01;94494.69;;;1.76;nan
11099;BME280;12223;42.650;23.364;2022-12-24T00:52:29;94487.50;;;1.78;nan
11099;BME280;12223;42.650;23.364;2022-12-24T00:54:56;94487.88;;;1.67;nan
11099;BME280;12223;42.650;23.364;2022-12-24T00:57:23;94487.56;;;1.70;nan
11099;BME280;12223;42.650;23.364;2022-12-24T00:59:50;94473.31;;;1.81;nan
11099;BME280;12223;42.650;23.364;2022-12-24T01:02:16;94476.94;;;1.72;nan
11099;BME280;12223;42.650;23.364;2022-12-24T01:04:43;94475.75;;;1.82;nan
11099;BME280;12223;42.650;23.364;2022-12-24T01:07:29;94479.06;;;1.76;nan
11099;BME280;12223;42.650;23.364;2022-12-24T01:09:56;94480.88;;;1.68;nan
11099;BME280;12223;42.650;23.364;2022-12-24T01:12:23;94483.03;;;1.64;nan
11099;BME280;12223;42.650;23.364;2022-12-24T01:14:50;94496.78;;;1.50;nan
11099;BME280;12223;42.650;23.364;2022-12-24T01:17:16;94510.38;;;1.60;nan
11099;BME280;12223;42.650;23.364;2022-12-24T01:19:43;94511.72;;;1.56;nan
11099;BME280;12223;42.650;23.364;2022-12-24T01:22:10;94512.97;;;1.60;nan
11099;BME280;12223;42.650;23.364;2022-12-24T01:24:39;94508.13;;;1.57;nan
11099;BME280;12223;42.650;23.364;2022-12-24T01:27:06;94494.31;;;1.56;nan
11099;BME280;12223;42.650;23.364;2022-12-24T01:29:33;94485.16;;;1.60;nan
11099;BME280;12223;42.650;23.364;2022-12-24T01:31:59;94485.19;;;1.52;nan
11099;BME280;12223;42.650;23.364;2022-12-24T01:34:26;94488.16;;;1.49;nan
11099;BME280;12223;42.650;23.364;2022-12-24T01:36:53;94493.09;;;1.67;nan
11099;BME280;12223;42.650;23.364;2022-12-24T01:39:19;94490.47;;;1.44;nan
11099;BME280;12223;42.650;23.364;2022-12-24T01:41:48;94501.38;;;1.40;nan
11099;BME280;12223;42.650;23.364;2022-12-24T01:44:34;94496.75;;;1.58;nan
11099;BME280;12223;42.650;23.364;2022-12-24T01:47:06;94493.66;;;1.77;nan
11099;BME280;12223;42.650;23.364;2022-12-24T01:49:36;94503.22;;;1.62;nan
11099;BME280;12223;42.650;23.364;2022-12-24T01:52:06;94499.97;;;1.60;nan
11099;BME280;12223;42.650;23.364;2022-12-24T01:54:36;94496.69;;;1.66;nan
11099;BME280;12223;42.650;23.364;2022-12-24T01:57:08;94502.50;;;1.45;nan
11099;BME280;12223;42.650;23.364;2022-12-24T01:59:36;94513.00;;;1.52;nan
11099;BME280;12223;42.650;23.364;2022-12-24T02:02:04;94514.34;;;1.48;nan
11099;BME280;12223;42.650;23.364;2022-12-24T02:04:35;94499.09;;;1.06;nan
11099;BME280;12223;42.650;23.364;2022-12-24T02:07:03;94494.09;;;1.27;nan
11099;BME280;12223;42.650;23.364;2022-12-24T02:09:31;94484.03;;;1.32;nan
11099;BME280;12223;42.650;23.364;2022-12-24T02:11:58;94481.09;;;1.27;nan
11099;BME280;12223;42.650;23.364;2022-12-24T02:14:27;94491.03;;;1.24;nan
11099;BME280;12223;42.650;23.364;2022-12-24T02:17:01;94488.75;;;1.29;nan
11099;BME280;12223;42.650;23.364;2022-12-24T02:19:51;94493.44;;;1.33;nan
11099;BME280;12223;42.650;23.364;2022-12-24T02:22:31;94491.34;;;1.29;nan
11099;BME280;12223;42.650;23.364;2022-12-24T02:25:24;94486.25;;;1.43;nan
11099;BME280;12223;42.650;23.364;2022-12-24T02:27:56;94488.75;;;1.29;nan
11099;BME280;12223;42.650;23.364;2022-12-24T02:30:30;94480.81;;;1.53;nan
11099;BME280;12223;42.650;23.364;2022-12-24T02:33:05;94492.75;;;1.39;nan
11099;BME280;12223;42.650;23.364;2022-12-24T02:35:45;94493.91;;;1.37;nan
11099;BME280;12223;42.650;23.364;2022-12-24T02:38:18;94487.88;;;1.44;nan
11099;BME280;12223;42.650;23.364;2022-12-24T02:40:49;94476.50;;;1.37;nan
11099;BME280;12223;42.650;23.364;2022-12-24T02:43:20;94480.25;;;1.35;nan
11099;BME280;12223;42.650;23.364;2022-12-24T02:45:54;94484.78;;;1.41;nan
11099;BME280;12223;42.650;23.364;2022-12-24T02:48:23;94492.66;;;1.33;nan
11099;BME280;12223;42.650;23.364;2022-12-24T02:50:57;94485.13;;;1.38;nan
11099;BME280;12223;42.650;23.364;2022-12-24T02:53:24;94474.78;;;1.21;nan
11099;BME280;12223;42.650;23.364;2022-12-24T02:55:58;94461.59;;;1.31;nan
11099;BME280;12223;42.650;23.364;2022-12-24T02:58:38;94471.22;;;1.23;nan
11099;BME280;12223;42.650;23.364;2022-12-24T03:01:14;94462.41;;;1.32;nan
11099;BME280;12223;42.650;23.364;2022-12-24T03:03:53;94468.81;;;1.13;nan
11099;BME280;12223;42.650;23.364;2022-12-24T03:06:31;94451.66;;;0.96;nan
11099;BME280;12223;42.650;23.364;2022-12-24T03:09:04;94419.78;;;1.02;nan
11099;BME280;12223;42.650;23.364;2022-12-24T03:11:35;94468.63;;;1.14;nan
11099;BME280;12223;42.650;23.364;2022-12-24T03:14:05;94458.16;;;1.00;nan
11099;BME280;12223;42.650;23.364;2022-12-24T03:16:33;94453.84;;;1.15;nan
11099;BME280;12223;42.650;23.364;2022-12-24T03:19:00;94447.84;;;1.14;nan
11099;BME280;12223;42.650;23.364;2022-12-24T03:21:30;94448.84;;;1.13;nan
11099;BME280;12223;42.650;23.364;2022-12-24T03:23:58;94451.88;;;0.86;nan
11099;BME280;12223;42.650;23.364;2022-12-24T03:26:25;94431.31;;;1.07;nan
11099;BME280;12223;42.650;23.364;2022-12-24T03:28:54;94433.09;;;1.07;nan
11099;BME280;12223;42.650;23.364;2022-12-24T03:31:21;94444.66;;;0.96;nan
11099;BME280;12223;42.650;23.364;2022-12-24T03:33:50;94457.47;;;1.06;nan
11099;BME280;12223;42.650;23.364;2022-12-24T03:36:17;94466.38;;;1.11;nan
11099;BME280;12223;42.650;23.364;2022-12-24T03:38:43;94471.47;;;1.05;nan
11099;BME280;12223;42.650;23.364;2022-12-24T03:41:10;94470.47;;;1.06;nan
11099;BME280;12223;42.650;23.364;2022-12-24T03:43:37;94472.28;;;1.05;nan
11099;BME280;12223;42.650;23.364;2022-12-24T03:46:05;94468.84;;;1.05;nan
11099;BME280;12223;42.650;23.364;2022-12-24T03:48:32;94463.66;;;1.05;nan
11099;BME280;12223;42.650;23.364;2022-12-24T03:51:01;94473.53;;;1.09;nan
11099;BME280;12223;42.650;23.364;2022-12-24T03:53:28;94474.66;;;1.15;nan
11099;BME280;12223;42.650;23.364;2022-12-24T03:55:55;94493.81;;;1.14;nan
11099;BME280;12223;42.650;23.364;2022-12-24T03:58:22;94491.13;;;1.07;nan
11099;BME280;12223;42.650;23.364;2022-12-24T04:00:49;94497.81;;;0.94;nan
11099;BME280;12223;42.650;23.364;2022-12-24T04:03:15;94488.78;;;0.73;nan
11099;BME280;12223;42.650;23.364;2022-12-24T04:05:42;94483.94;;;0.62;nan
11099;BME280;12223;42.650;23.364;2022-12-24T04:08:10;94477.88;;;0.78;nan
11099;BME280;12223;42.650;23.364;2022-12-24T04:10:37;94470.00;;;1.02;nan
11099;BME280;12223;42.650;23.364;2022-12-24T04:13:04;94489.69;;;0.97;nan
11099;BME280;12223;42.650;23.364;2022-12-24T04:15:31;94492.78;;;0.92;nan
11099;BME280;12223;42.650;23.364;2022-12-24T04:17:57;94507.56;;;0.92;nan
11099;BME280;12223;42.650;23.364;2022-12-24T04:20:24;94511.50;;;0.88;nan
11099;BME280;12223;42.650;23.364;2022-12-24T04:22:51;94510.03;;;0.85;nan
11099;BME280;12223;42.650;23.364;2022-12-24T04:25:20;94509.38;;;0.83;nan
11099;BME280;12223;42.650;23.364;2022-12-24T04:27:46;94507.78;;;0.82;nan
11099;BME280;12223;42.650;23.364;2022-12-24T04:30:13;94515.38;;;0.84;nan
11099;BME280;12223;42.650;23.364;2022-12-24T04:32:40;94520.59;;;0.84;nan
11099;BME280;12223;42.650;23.364;2022-12-24T04:35:07;94521.09;;;0.71;nan
11099;BME280;12223;42.650;23.364;2022-12-24T04:37:34;94515.69;;;0.89;nan
11099;BME280;12223;42.650;23.364;2022-12-24T04:40:01;94532.31;;;0.63;nan
11099;BME280;12223;42.650;23.364;2022-12-24T04:42:29;94527.56;;;0.83;nan
11099;BME280;12223;42.650;23.364;2022-12-24T04:44:56;94531.28;;;0.97;nan
11099;BME280;12223;42.650;23.364;2022-12-24T04:47:23;94528.06;;;0.95;nan
11099;BME280;12223;42.650;23.364;2022-12-24T04:49:49;94531.94;;;0.99;nan
11099;BME280;12223;42.650;23.364;2022-12-24T04:52:16;94527.56;;;0.83;nan
11099;BME280;12223;42.650;23.364;2022-12-24T04:54:43;94518.03;;;0.75;nan
11099;BME280;12223;42.650;23.364;2022-12-24T04:57:09;94520.63;;;0.59;nan
11099;BME280;12223;42.650;23.364;2022-12-24T04:59:38;94510.09;;;0.53;nan
11099;BME280;12223;42.650;23.364;2022-12-24T05:02:04;94504.69;;;0.70;nan
11099;BME280;12223;42.650;23.364;2022-12-24T05:04:31;94483.56;;;0.82;nan
11099;BME280;12223;42.650;23.364;2022-12-24T05:06:58;94486.47;;;0.87;nan
11099;BME280;12223;42.650;23.364;2022-12-24T05:09:24;94485.34;;;0.81;nan
11099;BME280;12223;42.650;23.364;2022-12-24T05:11:51;94491.84;;;0.77;nan
11099;BME280;12223;42.650;23.364;2022-12-24T05:14:18;94483.88;;;0.87;nan
11099;BME280;12223;42.650;23.364;2022-12-24T05:16:46;94477.84;;;0.86;nan
11099;BME280;12223;42.650;23.364;2022-12-24T05:19:13;94469.25;;;0.77;nan
11099;BME280;12223;42.650;23.364;2022-12-24T05:21:39;94457.66;;;0.96;nan
11099;BME280;12223;42.650;23.364;2022-12-24T05:24:06;94432.59;;;1.11;nan
11099;BME280;12223;42.650;23.364;2022-12-24T05:26:52;94426.88;;;1.16;nan
11099;BME280;12223;42.650;23.364;2022-12-24T05:29:20;94421.50;;;1.17;nan
11099;BME280;12223;42.650;23.364;2022-12-24T05:31:48;94435.56;;;1.31;nan
11099;BME280;12223;42.650;23.364;2022-12-24T05:34:16;94442.09;;;1.27;nan
11099;BME280;12223;42.650;23.364;2022-12-24T05:36:43;94438.84;;;0.94;nan
11099;BME280;12223;42.650;23.364;2022-12-24T05:39:12;94444.47;;;1.06;nan
11099;BME280;12223;42.650;23.364;2022-12-24T05:41:40;94442.00;;;1.12;nan
11099;BME280;12223;42.650;23.364;2022-12-24T05:44:09;94436.13;;;1.18;nan
11099;BME280;12223;42.650;23.364;2022-12-24T05:46:35;94448.63;;;1.46;nan
11099;BME280;12223;42.650;23.364;2022-12-24T05:49:03;94473.47;;;1.56;nan
11099;BME280;12223;42.650;23.364;2022-12-24T05:51:30;94493.09;;;1.36;nan
11099;BME280;12223;42.650;23.364;2022-12-24T05:53:57;94501.38;;;1.71;nan
11099;BME280;12223;42.650;23.364;2022-12-24T05:56:24;94527.22;;;1.72;nan
11099;BME280;12223;42.650;23.364;2022-12-24T05:58:52;94521.19;;;1.72;nan
11099;BME280;12223;42.650;23.364;2022-12-24T06:01:20;94496.75;;;1.58;nan
11099;BME280;12223;42.650;23.364;2022-12-24T06:03:47;94520.47;;;1.63;nan
11099;BME280;12223;42.650;23.364;2022-12-24T06:06:17;94551.50;;;1.65;nan
11099;BME280;12223;42.650;23.364;2022-12-24T06:08:46;94557.88;;;1.62;nan
11099;BME280;12223;42.650;23.364;2022-12-24T06:11:14;94558.81;;;1.69;nan
11099;BME280;12223;42.650;23.364;2022-12-24T06:13:42;94554.88;;;1.73;nan
11099;BME280;12223;42.650;23.364;2022-12-24T06:16:12;94562.66;;;1.81;nan
11099;BME280;12223;42.650;23.364;2022-12-24T06:18:40;94561.34;;;1.77;nan
11099;BME280;12223;42.650;23.364;2022-12-24T06:21:07;94564.19;;;2.44;nan
11099;BME280;12223;42.650;23.364;2022-12-24T06:23:37;94581.72;;;3.25;nan
11099;BME280;12223;42.650;23.364;2022-12-24T06:26:05;94607.34;;;4.10;nan
11099;BME280;12223;42.650;23.364;2022-12-24T06:28:34;94625.88;;;4.93;nan
11099;BME280;12223;42.650;23.364;2022-12-24T06:31:02;94619.91;;;5.89;nan
11099;BME280;12223;42.650;23.364;2022-12-24T06:33:30;94632.16;;;7.04;nan
11099;BME280;12223;42.650;23.364;2022-12-24T06:35:57;94628.84;;;8.00;nan
11099;BME280;12223;42.650;23.364;2022-12-24T06:38:24;94642.72;;;8.40;nan
11099;BME280;12223;42.650;23.364;2022-12-24T06:40:52;94650.72;;;7.88;nan
11099;BME280;12223;42.650;23.364;2022-12-24T06:43:20;94651.16;;;7.19;nan
11099;BME280;12223;42.650;23.364;2022-12-24T06:45:46;94651.81;;;6.40;nan
11099;BME280;12223;42.650;23.364;2022-12-24T06:48:14;94654.50;;;5.78;nan
11099;BME280;12223;42.650;23.364;2022-12-24T06:50:41;94663.69;;;5.12;nan
11099;BME280;12223;42.650;23.364;2022-12-24T06:53:08;94664.00;;;4.81;nan
11099;BME280;12223;42.650;23.364;2022-12-24T06:55:35;94670.16;;;4.37;nan
11099;BME280;12223;42.650;23.364;2022-12-24T06:58:03;94669.56;;;4.35;nan
11099;BME280;12223;42.650;23.364;2022-12-24T07:00:30;94662.53;;;4.36;nan
11099;BME280;12223;42.650;23.364;2022-12-24T07:02:57;94664.44;;;4.27;nan
11099;BME280;12223;42.650;23.364;2022-12-24T07:05:24;94663.84;;;4.47;nan
11099;BME280;12223;42.650;23.364;2022-12-24T07:07:51;94653.53;;;5.02;nan
11099;BME280;12223;42.650;23.364;2022-12-24T07:10:19;94651.44;;;6.02;nan
11099;BME280;12223;42.650;23.364;2022-12-24T07:12:46;94649.75;;;7.23;nan
11099;BME280;12223;42.650;23.364;2022-12-24T07:15:15;94658.28;;;8.35;nan
11099;BME280;12223;42.650;23.364;2022-12-24T07:17:42;94666.47;;;9.35;nan
11099;BME280;12223;42.650;23.364;2022-12-24T07:20:12;94655.09;;;10.27;nan
11099;BME280;12223;42.650;23.364;2022-12-24T07:22:39;94653.19;;;11.65;nan
11099;BME280;12223;42.650;23.364;2022-12-24T07:25:07;94655.81;;;12.70;nan
11099;BME280;12223;42.650;23.364;2022-12-24T07:27:34;94647.50;;;12.03;nan
11099;BME280;12223;42.650;23.364;2022-12-24T07:30:01;94667.63;;;10.68;nan
11099;BME280;12223;42.650;23.364;2022-12-24T07:32:29;94664.56;;;9.91;nan
11099;BME280;12223;42.650;23.364;2022-12-24T07:34:56;94666.84;;;9.07;nan
11099;BME280;12223;42.650;23.364;2022-12-24T07:37:23;94671.03;;;8.45;nan
11099;BME280;12223;42.650;23.364;2022-12-24T07:39:49;94666.06;;;7.97;nan
11099;BME280;12223;42.650;23.364;2022-12-24T07:42:16;94666.13;;;7.58;nan
11099;BME280;12223;42.650;23.364;2022-12-24T07:44:43;94670.94;;;7.15;nan
11099;BME280;12223;42.650;23.364;2022-12-24T07:47:10;94667.06;;;6.91;nan
11099;BME280;12223;42.650;23.364;2022-12-24T07:49:38;94676.41;;;7.13;nan
11099;BME280;12223;42.650;23.364;2022-12-24T07:52:05;94663.50;;;7.45;nan
11099;BME280;12223;42.650;23.364;2022-12-24T07:54:31;94671.38;;;7.71;nan
11099;BME280;12223;42.650;23.364;2022-12-24T07:56:59;94677.78;;;8.08;nan
11099;BME280;12223;42.650;23.364;2022-12-24T07:59:26;94677.38;;;8.69;nan
11099;BME280;12223;42.650;23.364;2022-12-24T08:01:53;94678.56;;;8.73;nan
11099;BME280;12223;42.650;23.364;2022-12-24T08:04:20;94682.28;;;9.03;nan
11099;BME280;12223;42.650;23.364;2022-12-24T08:06:48;94687.56;;;9.84;nan
11099;BME280;12223;42.650;23.364;2022-12-24T08:09:14;94681.50;;;10.02;nan
11099;BME280;12223;42.650;23.364;2022-12-24T08:11:42;94689.16;;;10.10;nan
11099;BME280;12223;42.650;23.364;2022-12-24T08:14:08;94702.38;;;9.85;nan
11099;BME280;12223;42.650;23.364;2022-12-24T08:16:35;94701.34;;;9.30;nan
11099;BME280;12223;42.650;23.364;2022-12-24T08:19:02;94704.06;;;8.79;nan
11099;BME280;12223;42.650;23.364;2022-12-24T08:21:28;94698.97;;;8.39;nan
11099;BME280;12223;42.650;23.364;2022-12-24T08:23:57;94705.06;;;8.40;nan
11099;BME280;12223;42.650;23.364;2022-12-24T08:26:23;94702.66;;;7.99;nan
11099;BME280;12223;42.650;23.364;2022-12-24T08:28:50;94699.47;;;7.44;nan
11099;BME280;12223;42.650;23.364;2022-12-24T08:31:17;94706.94;;;7.34;nan
11099;BME280;12223;42.650;23.364;2022-12-24T08:33:44;94697.84;;;7.30;nan
11099;BME280;12223;42.650;23.364;2022-12-24T08:36:11;94692.19;;;7.33;nan
11099;BME280;12223;42.650;23.364;2022-12-24T08:38:37;94688.34;;;7.29;nan
11099;BME280;12223;42.650;23.364;2022-12-24T08:41:05;94678.81;;;7.15;nan
11099;BME280;12223;42.650;23.364;2022-12-24T08:43:32;94678.41;;;7.05;nan
11099;BME280;12223;42.650;23.364;2022-12-24T08:46:01;94681.44;;;6.95;nan
11099;BME280;12223;42.650;23.364;2022-12-24T08:48:29;94667.72;;;7.00;nan
11099;BME280;12223;42.650;23.364;2022-12-24T08:50:56;94665.50;;;7.10;nan
11099;BME280;12223;42.650;23.364;2022-12-24T08:53:23;94671.75;;;7.22;nan
11099;BME280;12223;42.650;23.364;2022-12-24T08:55:50;94671.97;;;7.01;nan
11099;BME280;12223;42.650;23.364;2022-12-24T08:58:18;94670.94;;;7.08;nan
11099;BME280;12223;42.650;23.364;2022-12-24T09:00:45;94685.81;;;6.68;nan
11099;BME280;12223;42.650;23.364;2022-12-24T09:03:13;94684.63;;;6.23;nan
11099;BME280;12223;42.650;23.364;2022-12-24T09:05:40;94688.13;;;6.02;nan
11099;BME280;12223;42.650;23.364;2022-12-24T09:08:06;94678.72;;;5.80;nan
11099;BME280;12223;42.650;23.364;2022-12-24T09:10:33;94668.72;;;5.90;nan
11099;BME280;12223;42.650;23.364;2022-12-24T09:13:00;94670.50;;;6.24;nan
11099;BME280;12223;42.650;23.364;2022-12-24T09:15:28;94676.94;;;6.69;nan
11099;BME280;12223;42.650;23.364;2022-12-24T09:17:55;94669.50;;;6.93;nan
11099;BME280;12223;42.650;23.364;2022-12-24T09:20:22;94670.38;;;7.19;nan
11099;BME280;12223;42.650;23.364;2022-12-24T09:22:49;94672.78;;;7.27;nan
11099;BME280;12223;42.650;23.364;2022-12-24T09:25:15;94677.63;;;7.17;nan
11099;BME280;12223;42.650;23.364;2022-12-24T09:27:42;94658.22;;;7.05;nan
11099;BME280;12223;42.650;23.364;2022-12-24T09:30:10;94662.47;;;7.13;nan
11099;BME280;12223;42.650;23.364;2022-12-24T09:32:38;94670.34;;;7.00;nan
11099;BME280;12223;42.650;23.364;2022-12-24T09:35:05;94666.47;;;6.96;nan
11099;BME280;12223;42.650;23.364;2022-12-24T09:37:32;94667.25;;;6.83;nan
11099;BME280;12223;42.650;23.364;2022-12-24T09:39:59;94661.31;;;6.48;nan
11099;BME280;12223;42.650;23.364;2022-12-24T09:42:34;94657.13;;;6.67;nan
11099;BME280;12223;42.650;23.364;2022-12-24T09:45:12;94662.06;;;6.35;nan
11099;BME280;12223;42.650;23.364;2022-12-24T09:47:46;94653.25;;;6.50;nan
11099;BME280;12223;42.650;23.364;2022-12-24T09:50:29;94654.44;;;6.47;nan
11099;BME280;12223;42.650;23.364;2022-12-24T09:53:01;94653.22;;;6.43;nan
11099;BME280;12223;42.650;23.364;2022-12-24T09:55:31;94658.75;;;6.14;nan
11099;BME280;12223;42.650;23.364;2022-12-24T09:58:01;94641.09;;;5.88;nan
11099;BME280;12223;42.650;23.364;2022-12-24T10:00:34;94638.72;;;5.99;nan
11099;BME280;12223;42.650;23.364;2022-12-24T10:03:11;94636.72;;;6.08;nan
11099;BME280;12223;42.650;23.364;2022-12-24T10:05:43;94632.94;;;5.83;nan
11099;BME280;12223;42.650;23.364;2022-12-24T10:08:19;94645.06;;;6.18;nan
11099;BME280;12223;42.650;23.364;2022-12-24T10:10:52;94652.03;;;5.98;nan
11099;BME280;12223;42.650;23.364;2022-12-24T10:13:31;94656.13;;;5.79;nan
11099;BME280;12223;42.650;23.364;2022-12-24T10:16:09;94638.47;;;5.60;nan
11099;BME280;12223;42.650;23.364;2022-12-24T10:18:47;94640.81;;;5.48;nan
11099;BME280;12223;42.650;23.364;2022-12-24T10:21:27;94635.66;;;5.34;nan
11099;BME280;12223;42.650;23.364;2022-12-24T10:24:05;94629.03;;;5.65;nan
11099;BME280;12223;42.650;23.364;2022-12-24T10:26:37;94621.47;;;5.49;nan
11099;BME280;12223;42.650;23.364;2022-12-24T10:29:13;94613.31;;;5.38;nan
11099;BME280;12223;42.650;23.364;2022-12-24T10:31:48;94619.69;;;5.56;nan
11099;BME280;12223;42.650;23.364;2022-12-24T10:34:21;94624.06;;;5.77;nan
11099;BME280;12223;42.650;23.364;2022-12-24T10:36:49;94631.47;;;6.01;nan
11099;BME280;12223;42.650;23.364;2022-12-24T10:39:18;94639.09;;;6.37;nan
11099;BME280;12223;42.650;23.364;2022-12-24T10:41:47;94639.63;;;6.26;nan
11099;BME280;12223;42.650;23.364;2022-12-24T10:44:17;94627.91;;;6.16;nan
11099;BME280;12223;42.650;23.364;2022-12-24T10:46:45;94637.28;;;6.38;nan
11099;BME280;12223;42.650;23.364;2022-12-24T10:49:14;94609.09;;;6.66;nan
11099;BME280;12223;42.650;23.364;2022-12-24T10:52:00;94620.66;;;6.98;nan
11099;BME280;12223;42.650;23.364;2022-12-24T10:54:29;94616.63;;;6.89;nan
11099;BME280;12223;42.650;23.364;2022-12-24T10:57:04;94641.63;;;6.92;nan
11099;BME280;12223;42.650;23.364;2022-12-24T10:59:39;94640.63;;;6.93;nan
11099;BME280;12223;42.650;23.364;2022-12-24T11:02:25;94636.03;;;7.14;nan
11099;BME280;12223;42.650;23.364;2022-12-24T11:04:52;94627.34;;;7.27;nan
11099;BME280;12223;42.650;23.364;2022-12-24T11:07:22;94598.22;;;7.28;nan
11099;BME280;12223;42.650;23.364;2022-12-24T11:09:54;94637.81;;;7.60;nan
11099;BME280;12223;42.650;23.364;2022-12-24T11:12:24;94650.19;;;7.40;nan
11099;BME280;12223;42.650;23.364;2022-12-24T11:14:59;94653.78;;;7.06;nan
11099;BME280;12223;42.650;23.364;2022-12-24T11:17:27;94642.50;;;7.32;nan
11099;BME280;12223;42.650;23.364;2022-12-24T11:19:54;94632.38;;;7.42;nan
11099;BME280;12223;42.650;23.364;2022-12-24T11:22:24;94612.97;;;7.36;nan
11099;BME280;12223;42.650;23.364;2022-12-24T11:25:02;94624.63;;;7.80;nan
11099;BME280;12223;42.650;23.364;2022-12-24T11:27:39;94629.38;;;8.16;nan
11099;BME280;12223;42.650;23.364;2022-12-24T11:30:30;94620.16;;;8.58;nan
11099;BME280;12223;42.650;23.364;2022-12-24T11:33:18;94625.91;;;8.73;nan
11099;BME280;12223;42.650;23.364;2022-12-24T11:35:48;94643.19;;;9.00;nan
11099;BME280;12223;42.650;23.364;2022-12-24T11:38:20;94618.13;;;8.60;nan
11099;BME280;12223;42.650;23.364;2022-12-24T11:40:49;94647.38;;;8.76;nan
11099;BME280;12223;42.650;23.364;2022-12-24T11:43:18;94650.47;;;8.67;nan
11099;BME280;12223;42.650;23.364;2022-12-24T11:45:49;94637.06;;;8.75;nan
11099;BME280;12223;42.650;23.364;2022-12-24T11:48:25;94645.09;;;9.18;nan
11099;BME280;12223;42.650;23.364;2022-12-24T11:50:57;94641.47;;;9.12;nan
11099;BME280;12223;42.650;23.364;2022-12-24T11:53:30;94638.19;;;9.48;nan
11099;BME280;12223;42.650;23.364;2022-12-24T11:56:02;94629.06;;;9.69;nan
11099;BME280;12223;42.650;23.364;2022-12-24T11:58:37;94638.41;;;9.90;nan
11099;BME280;12223;42.650;23.364;2022-12-24T12:01:13;94623.63;;;10.07;nan
11099;BME280;12223;42.650;23.364;2022-12-24T12:03:45;94628.78;;;10.20;nan
11099;BME280;12223;42.650;23.364;2022-12-24T12:06:22;94611.31;;;10.19;nan
11099;BME280;12223;42.650;23.364;2022-12-24T12:08:55;94625.84;;;10.46;nan
11099;BME280;12223;42.650;23.364;2022-12-24T12:11:22;94622.53;;;10.51;nan
11099;BME280;12223;42.650;23.364;2022-12-24T12:13:51;94616.13;;;10.59;nan
11099;BME280;12223;42.650;23.364;2022-12-24T12:16:22;94609.28;;;10.69;nan
11099;BME280;12223;42.650;23.364;2022-12-24T12:18:54;94627.03;;;10.80;nan
11099;BME280;12223;42.650;23.364;2022-12-24T12:21:26;94623.59;;;10.80;nan
11099;BME280;12223;42.650;23.364;2022-12-24T12:24:02;94618.84;;;10.82;nan
11099;BME280;12223;42.650;23.364;2022-12-24T12:26:30;94620.59;;;10.88;nan
11099;BME280;12223;42.650;23.364;2022-12-24T12:29:00;94616.81;;;10.84;nan
11099;BME280;12223;42.650;23.364;2022-12-24T12:31:33;94607.47;;;10.81;nan
11099;BME280;12223;42.650;23.364;2022-12-24T12:34:04;94612.09;;;10.56;nan
11099;BME280;12223;42.650;23.364;2022-12-24T12:36:39;94616.09;;;10.29;nan
11099;BME280;12223;42.650;23.364;2022-12-24T12:39:10;94616.84;;;10.18;nan
11099;BME280;12223;42.650;23.364;2022-12-24T12:41:46;94622.47;;;10.21;nan
11099;BME280;12223;42.650;23.364;2022-12-24T12:44:30;94620.44;;;9.80;nan
11099;BME280;12223;42.650;23.364;2022-12-24T12:47:18;94626.78;;;9.54;nan
11099;BME280;12223;42.650;23.364;2022-12-24T12:49:53;94628.38;;;9.55;nan
11099;BME280;12223;42.650;23.364;2022-12-24T12:52:38;94620.00;;;9.83;nan
11099;BME280;12223;42.650;23.364;2022-12-24T12:55:19;94632.13;;;9.91;nan
11099;BME280;12223;42.650;23.364;2022-12-24T12:57:49;94632.84;;;9.80;nan
11099;BME280;12223;42.650;23.364;2022-12-24T13:00:18;94635.84;;;9.83;nan
11099;BME280;12223;42.650;23.364;2022-12-24T13:02:59;94644.38;;;9.60;nan
11099;BME280;12223;42.650;23.364;2022-12-24T13:06:05;94646.72;;;9.68;nan
11099;BME280;12223;42.650;23.364;2022-12-24T13:09:03;94645.59;;;9.58;nan
11099;BME280;12223;42.650;23.364;2022-12-24T13:11:56;94649.53;;;9.17;nan
11099;BME280;12223;42.650;23.364;2022-12-24T13:17:32;94651.72;;;9.52;nan
11099;BME280;12223;42.650;23.364;2022-12-24T13:20:13;94656.59;;;9.23;nan
11099;BME280;12223;42.650;23.364;2022-12-24T13:22:48;94660.09;;;9.17;nan
11099;BME280;12223;42.650;23.364;2022-12-24T13:25:20;94650.13;;;8.95;nan
11099;BME280;12223;42.650;23.364;2022-12-24T13:27:49;94673.16;;;8.61;nan
11099;BME280;12223;42.650;23.364;2022-12-24T13:30:33;94673.06;;;8.23;nan
11099;BME280;12223;42.650;23.364;2022-12-24T13:33:01;94676.50;;;8.37;nan
11099;BME280;12223;42.650;23.364;2022-12-24T13:35:56;94675.31;;;8.33;nan
11099;BME280;12223;42.650;23.364;2022-12-24T13:38:42;94673.09;;;8.17;nan